Time;durP1;ratioP1;P1;durP2;ratioP2;P2;SDS_P1;SDS_P2;PMS_P1;PMS_P2;Temp;Humidity;BMP_temperature;BMP_pressure;BME280_temperature;BME280_humidity;BME280_pressure;Samples;Min_cycle;Max_cycle;Signal;HPM_P1;HPM_P2
2024/04/09 00:01:27;;;;;;;10.40;3.90;;;;;;;15.91;68.13;99729.02;129878;1264;114875;-71
2024/04/09 00:04:29;;;;;;;8.80;3.80;;;;;;;15.88;68.37;99725.89;129616;1263;114942;-71
2024/04/09 00:07:30;;;;;;;6.80;3.60;;;;;;;15.85;68.48;99719.48;129738;1261;115158;-74
2024/04/09 00:10:36;;;;;;;4.00;2.60;;;;;;;15.82;68.94;99713.77;129464;1281;115198;-74
2024/04/09 00:13:37;;;;;;;;;;;;;;;15.79;69.14;99715.96;130015;1259;115206;-71
2024/04/09 00:16:41;;;;;;;6.60;3.70;;;;;;;15.75;69.29;99706.36;129493;1275;114921;-74
2024/04/09 00:19:43;;;;;;;5.40;3.30;;;;;;;15.72;69.43;99706.05;129849;1262;114920;-74
2024/04/09 00:22:45;;;;;;;6.00;3.30;;;;;;;15.70;69.48;99704.80;129921;1268;115230;-70
2024/04/09 00:25:49;;;;;;;5.50;3.20;;;;;;;15.67;69.52;99701.77;129842;1260;129012;-73
2024/04/09 00:28:51;;;;;;;6.90;3.60;;;;;;;15.65;69.52;99702.30;129456;1275;114887;-71
2024/04/09 00:31:53;;;;;;;6.20;3.60;;;;;;;15.62;69.87;99696.61;129422;1263;114783;-70
2024/04/09 00:34:55;;;;;;;6.70;3.60;;;;;;;15.59;70.19;99694.27;129508;1274;115549;-71
2024/04/09 00:37:57;;;;;;;5.30;3.60;;;;;;;15.57;70.01;99692.70;129752;1264;114792;-67
2024/04/09 00:40:59;;;;;;;7.40;3.90;;;;;;;15.55;69.97;99697.91;129362;1273;114895;-66
2024/04/09 00:44:00;;;;;;;6.10;4.10;;;;;;;15.52;70.27;99690.77;129534;1261;116013;-66
2024/04/09 00:47:08;;;;;;;7.20;4.10;;;;;;;15.50;70.11;99689.27;129384;1267;128344;-66
2024/04/09 00:50:11;;;;;;;5.10;3.50;;;;;;;15.47;70.00;99692.19;129478;1260;114717;-66
2024/04/09 00:53:16;;;;;;;6.40;3.80;;;;;;;15.43;70.27;99686.40;129412;1275;114807;-69
2024/04/09 00:56:18;;;;;;;;;;;;;;;15.39;70.50;99690.13;129319;1277;114854;-67
2024/04/09 00:59:21;;;;;;;4.60;3.70;;;;;;;15.34;70.42;99692.88;129840;1261;114855;-68
2024/04/09 01:02:24;;;;;;;6.20;4.60;;;;;;;15.29;70.43;99689.52;129422;1270;114752;-69
2024/04/09 01:05:26;;;;;;;5.70;4.70;;;;;;;15.25;70.69;99688.75;129780;1260;114745;-68
2024/04/09 01:08:28;;;;;;;6.20;3.50;;;;;;;15.21;70.81;99683.50;129885;1264;115161;-68
2024/04/09 01:11:31;;;;;;;10.40;4.60;;;;;;;15.18;71.15;99684.60;129885;1263;114781;-68
2024/04/09 01:14:33;;;;;;;6.60;4.40;;;;;;;15.15;70.96;99680.18;129714;1264;114739;-69
2024/04/09 01:17:38;;;;;;;4.50;3.10;;;;;;;15.10;71.32;99682.54;129702;1276;114846;-66
2024/04/09 01:20:40;;;;;;;7.80;4.00;;;;;;;15.06;71.38;99683.54;129373;1264;114822;-67
2024/04/09 01:23:42;;;;;;;6.20;4.50;;;;;;;15.03;71.23;99690.10;129457;1263;114802;-66
2024/04/09 01:26:44;;;;;;;5.60;4.20;;;;;;;15.00;71.47;99687.25;129606;1263;114817;-67
2024/04/09 01:29:49;;;;;;;5.00;3.20;;;;;;;14.98;71.65;99689.78;129757;1271;114823;-68
2024/04/09 01:32:51;;;;;;;7.00;3.90;;;;;;;14.95;71.77;99689.65;129501;1264;114771;-66
2024/04/09 01:35:53;;;;;;;5.30;3.90;;;;;;;14.93;71.74;99690.84;129503;1264;115355;-66
2024/04/09 01:38:55;;;;;;;5.30;4.20;;;;;;;14.90;71.77;99693.04;129847;1264;114864;-69
2024/04/09 01:41:58;;;;;;;6.90;4.60;;;;;;;14.88;71.73;99692.31;129524;1264;115028;-67
2024/04/09 01:45:00;;;;;;;8.70;4.20;;;;;;;14.86;71.84;99690.50;129452;1264;127072;-70
2024/04/09 01:48:02;;;;;;;7.30;3.20;;;;;;;14.84;72.30;99691.02;129476;1262;114793;-67
2024/04/09 01:51:11;;;;;;;5.10;4.30;;;;;;;14.82;72.24;99690.95;129849;1258;114929;-68
2024/04/09 01:54:13;;;;;;;5.80;4.10;;;;;;;14.81;72.51;99688.39;129511;1264;115616;-64
2024/04/09 01:57:16;;;;;;;7.00;3.70;;;;;;;14.78;72.61;99690.23;129791;1273;114771;-66
2024/04/09 02:00:20;;;;;;;8.60;3.50;;;;;;;14.74;72.72;99689.05;129371;1260;114760;-67
2024/04/09 02:03:24;;;;;;;5.20;3.60;;;;;;;14.71;72.52;99686.80;129437;1264;114812;-69
2024/04/09 02:06:26;;;;;;;6.40;4.60;;;;;;;14.67;72.70;99680.58;129472;1265;115024;-63
2024/04/09 02:09:28;;;;;;;4.80;3.70;;;;;;;14.62;72.93;99682.54;129350;1263;115595;-64
2024/04/09 02:12:30;;;;;;;8.40;3.80;;;;;;;14.58;73.08;99683.55;129262;1264;222046;-63
2024/04/09 02:15:32;;;;;;;5.00;3.00;;;;;;;14.54;73.31;99677.42;129534;1264;114824;-66
2024/04/09 02:18:37;;;;;;;5.00;3.60;;;;;;;14.50;73.31;99677.20;129347;1261;114819;-64
2024/04/09 02:21:38;;;;;;;;;;;;;;;14.45;73.69;99677.61;129550;1264;128860;-64
2024/04/09 02:24:40;;;;;;;5.00;3.60;;;;;;;14.40;73.76;99674.33;129522;1264;114802;-64
2024/04/09 02:27:42;;;;;;;6.90;4.50;;;;;;;14.36;73.85;99676.85;129947;1281;114802;-67
2024/04/09 02:30:44;;;;;;;5.00;3.50;;;;;;;14.32;74.01;99675.50;129327;1264;114816;-63
2024/04/09 02:33:46;;;;;;;4.90;4.00;;;;;;;14.28;74.15;99676.13;129438;1281;114871;-67
2024/04/09 02:36:48;;;;;;;7.20;3.50;;;;;;;14.25;74.23;99674.55;129464;1264;114750;-63
2024/04/09 02:39:51;;;;;;;5.70;2.90;;;;;;;14.22;74.47;99675.72;129360;1271;114835;-64
2024/04/09 02:42:56;;;;;;;4.90;3.60;;;;;;;14.18;74.33;99677.61;129878;1260;114880;-69
2024/04/09 02:46:01;;;;;;;4.60;3.30;;;;;;;14.15;74.69;99676.78;129689;1263;116638;-64
2024/04/09 02:49:06;;;;;;;4.20;3.00;;;;;;;14.12;74.73;99673.96;129400;1264;114880;-63
2024/04/09 02:52:08;;;;;;;6.40;3.40;;;;;;;14.08;74.74;99671.52;129733;1263;114778;-64
2024/04/09 02:55:10;;;;;;;3.00;2.40;;;;;;;14.05;74.86;99668.16;129362;1261;114714;-64
2024/04/09 02:58:13;;;;;;;2.60;2.20;;;;;;;14.01;75.09;99666.14;129468;1264;114764;-63
2024/04/09 03:01:15;;;;;;;4.80;2.40;;;;;;;13.97;75.48;99666.08;129345;1276;128356;-67
2024/04/09 03:04:17;;;;;;;5.20;2.80;;;;;;;13.95;75.52;99666.20;129893;1259;114828;-68
2024/04/09 03:07:19;;;;;;;4.00;2.80;;;;;;;13.95;75.40;99660.46;129477;1281;114820;-69
2024/04/09 03:10:21;;;;;;;3.20;2.20;;;;;;;13.96;75.44;99660.75;129481;1264;114918;-65
2024/04/09 03:13:23;;;;;;;6.20;3.10;;;;;;;13.98;75.47;99662.23;129547;1281;115234;-67
2024/04/09 03:16:25;;;;;;;4.60;2.80;;;;;;;13.99;75.47;99663.20;129583;1264;114970;-67
2024/04/09 03:19:27;;;;;;;4.20;2.20;;;;;;;14.01;75.39;99658.42;129401;1264;114751;-66
2024/04/09 03:22:28;;;;;;;5.30;3.60;;;;;;;14.03;75.61;99657.88;129444;1273;114832;-67
2024/04/09 03:25:30;;;;;;;5.20;2.70;;;;;;;14.06;75.35;99653.00;129745;1259;114777;-66
2024/04/09 03:28:33;;;;;;;5.60;3.10;;;;;;;14.09;75.37;99652.05;129393;1266;115193;-64
2024/04/09 03:31:35;;;;;;;2.90;2.20;;;;;;;14.12;75.12;99653.27;129870;1263;115153;-67
2024/04/09 03:34:37;;;;;;;5.40;2.60;;;;;;;14.14;75.17;99654.77;129771;1264;114826;-64
2024/04/09 03:37:39;;;;;;;4.30;2.30;;;;;;;14.16;75.09;99651.73;130017;1265;115402;-62
2024/04/09 03:40:40;;;;;;;4.10;2.40;;;;;;;14.18;74.84;99657.14;129475;1274;114731;-63
2024/04/09 03:43:42;;;;;;;5.20;3.10;;;;;;;14.19;74.92;99658.48;129604;1264;114887;-65
2024/04/09 03:46:45;;;;;;;3.60;2.80;;;;;;;14.20;74.59;99659.19;129191;1259;128295;-63
2024/04/09 03:49:46;;;;;;;3.30;2.30;;;;;;;14.19;74.66;99660.08;129595;1264;114868;-64
2024/04/09 03:52:48;;;;;;;4.30;3.10;;;;;;;14.20;74.53;99662.23;129505;1277;114856;-64
2024/04/09 03:55:57;;;;;;;7.90;2.40;;;;;;;14.18;74.38;99662.13;129785;1263;114841;-64
2024/04/09 03:58:59;;;;;;;4.70;2.40;;;;;;;14.17;74.38;99663.10;129377;1267;114819;-63
2024/04/09 04:02:03;;;;;;;4.70;2.40;;;;;;;14.16;74.50;99664.81;129460;1264;114761;-63
2024/04/09 04:05:05;;;;;;;3.50;1.80;;;;;;;14.15;74.43;99665.64;129884;1263;114893;-65
2024/04/09 04:08:08;;;;;;;4.50;1.70;;;;;;;14.13;74.29;99660.58;129369;1259;114827;-63
2024/04/09 04:11:11;;;;;;;4.00;2.00;;;;;;;14.11;74.21;99656.70;129518;1263;114753;-63
2024/04/09 04:14:13;;;;;;;4.60;2.00;;;;;;;14.10;74.30;99662.38;129334;1264;114960;-67
2024/04/09 04:17:15;;;;;;;3.10;2.20;;;;;;;14.09;74.17;99661.21;129491;1264;114753;-65
2024/04/09 04:20:17;;;;;;;4.30;3.00;;;;;;;14.09;74.33;99659.06;129441;1274;114868;-62
2024/04/09 04:23:18;;;;;;;8.30;2.90;;;;;;;14.08;74.23;99664.31;129370;1263;115408;-66
2024/04/09 04:26:25;;;;;;;5.50;2.60;;;;;;;14.08;74.05;99661.79;129408;1264;114849;-62
2024/04/09 04:29:27;;;;;;;3.30;2.10;;;;;;;14.08;74.09;99665.41;129471;1263;114877;-64
2024/04/09 04:32:28;;;;;;;3.90;2.60;;;;;;;14.09;74.01;99664.30;129528;1259;115214;-62
2024/04/09 04:35:31;;;;;;;3.70;2.20;;;;;;;14.09;74.04;99666.60;129714;1273;114826;-62
2024/04/09 04:38:33;;;;;;;3.10;2.20;;;;;;;14.09;73.82;99662.42;129454;1263;115266;-64
2024/04/09 04:41:35;;;;;;;13.40;2.80;;;;;;;14.13;73.98;99664.30;129456;1281;114771;-66
2024/04/09 04:44:37;;;;;;;4.30;1.90;;;;;;;14.16;73.67;99665.91;129611;1263;114745;-64
2024/04/09 04:47:39;;;;;;;4.60;2.50;;;;;;;14.19;73.68;99666.08;129421;1265;128518;-67
2024/04/09 04:50:41;;;;;;;7.50;2.70;;;;;;;14.22;73.75;99663.27;129430;1259;115166;-66
2024/04/09 04:53:43;;;;;;;6.80;2.80;;;;;;;14.27;73.38;99663.62;129628;1258;115223;-67
2024/04/09 04:56:45;;;;;;;3.70;1.70;;;;;;;14.35;73.51;99662.55;129268;1264;115044;-65
2024/04/09 04:59:47;;;;;;;4.10;2.50;;;;;;;14.43;73.19;99665.30;129470;1263;115065;-62
2024/04/09 05:02:48;;;;;;;5.00;2.40;;;;;;;14.55;73.06;99662.98;129485;1259;114820;-65
2024/04/09 05:05:51;;;;;;;4.50;1.90;;;;;;;14.71;72.98;99658.93;129310;1264;114835;-65
2024/04/09 05:08:52;;;;;;;6.40;2.40;;;;;;;14.88;73.08;99660.15;129611;1281;115173;-67
2024/04/09 05:11:54;;;;;;;3.80;2.10;;;;;;;15.08;72.48;99657.53;129639;1264;114780;-67
2024/04/09 05:14:56;;;;;;;9.00;2.30;;;;;;;15.29;72.61;99656.22;129257;1263;115136;-67
2024/04/09 05:17:58;;;;;;;4.70;2.50;;;;;;;15.51;72.18;99653.38;129712;1274;114888;-63
2024/04/09 05:21:00;;;;;;;6.50;2.40;;;;;;;15.74;72.01;99650.47;129595;1264;114873;-66
2024/04/09 05:24:02;;;;;;;3.80;2.00;;;;;;;15.96;71.34;99650.49;129574;1259;114882;-66
2024/04/09 05:27:07;;;;;;;4.20;2.30;;;;;;;16.17;70.90;99645.91;129455;1264;114883;-66
2024/04/09 05:30:10;;;;;;;5.80;2.70;;;;;;;16.39;70.58;99644.23;129457;1266;127425;-66
2024/04/09 05:33:12;;;;;;;6.10;2.10;;;;;;;16.60;70.10;99635.02;129607;1264;114787;-68
2024/04/09 05:36:14;;;;;;;8.00;2.60;;;;;;;16.82;69.58;99633.91;129561;1258;115297;-66
2024/04/09 05:39:16;;;;;;;3.50;2.60;;;;;;;17.03;68.93;99634.84;129367;1264;114847;-67
2024/04/09 05:42:18;;;;;;;5.70;2.50;;;;;;;17.22;68.35;99629.20;129816;1264;114857;-68
2024/04/09 05:45:21;;;;;;;3.90;2.20;;;;;;;17.42;68.03;99626.69;129729;1259;115420;-67
2024/04/09 05:48:23;;;;;;;5.90;2.10;;;;;;;17.63;67.61;99629.73;129674;1266;114761;-68
2024/04/09 05:51:25;;;;;;;5.20;1.90;;;;;;;17.83;67.19;99629.88;129665;1263;115137;-68
2024/04/09 05:54:28;;;;;;;5.20;2.10;;;;;;;18.02;66.87;99623.86;129448;1258;114749;-65
2024/04/09 05:57:36;;;;;;;4.20;2.50;;;;;;;18.24;66.44;99625.65;129324;1281;116629;-69
2024/04/09 06:00:39;;;;;;;4.00;2.40;;;;;;;18.48;65.86;99623.94;129664;1259;114819;-64
2024/04/09 06:03:41;;;;;;;3.80;2.30;;;;;;;18.69;64.99;99622.77;129692;1264;115798;-66
2024/04/09 06:06:46;;;;;;;4.80;1.80;;;;;;;18.84;64.91;99622.05;129428;1264;114763;-66
2024/04/09 06:09:48;;;;;;;4.10;2.20;;;;;;;19.02;64.23;99623.98;129201;1268;114891;-66
2024/04/09 06:12:50;;;;;;;4.70;2.30;;;;;;;19.23;63.82;99624.33;129655;1264;115009;-65
2024/04/09 06:15:52;;;;;;;2.90;1.90;;;;;;;19.48;63.20;99619.02;129793;1263;114842;-67
2024/04/09 06:18:54;;;;;;;3.30;1.60;;;;;;;19.74;63.14;99617.24;129292;1259;116271;-67
2024/04/09 06:21:56;;;;;;;3.70;1.50;;;;;;;19.99;62.46;99613.34;129378;1264;114827;-64
2024/04/09 06:24:59;;;;;;;3.70;1.30;;;;;;;20.26;62.01;99611.55;129434;1259;114852;-67
2024/04/09 06:28:02;;;;;;;3.70;1.80;;;;;;;20.58;62.00;99609.76;129610;1264;114810;-63
2024/04/09 06:31:05;;;;;;;4.00;1.70;;;;;;;20.96;61.26;99609.72;129970;1264;115234;-63
2024/04/09 06:34:07;;;;;;;5.80;1.70;;;;;;;21.36;60.78;99606.81;129757;1264;114801;-65
2024/04/09 06:37:09;;;;;;;3.30;1.50;;;;;;;21.76;60.07;99608.02;129443;1264;114712;-64
2024/04/09 06:40:11;;;;;;;4.30;1.50;;;;;;;22.13;59.54;99604.14;129733;1258;115217;-64
2024/04/09 06:43:13;;;;;;;4.00;1.60;;;;;;;22.43;58.07;99604.34;129648;1280;114896;-65
2024/04/09 06:46:15;;;;;;;5.50;1.40;;;;;;;22.71;57.03;99600.86;129436;1264;114824;-65
2024/04/09 06:49:17;;;;;;;3.50;1.50;;;;;;;23.00;56.74;99606.44;129427;1259;115234;-65
2024/04/09 06:52:19;;;;;;;3.50;1.20;;;;;;;23.28;55.90;99599.64;129844;1259;114737;-63
2024/04/09 06:55:21;;;;;;;4.60;1.00;;;;;;;23.49;55.15;99598.38;129626;1259;116191;-66
2024/04/09 06:58:24;;;;;;;6.30;1.10;;;;;;;23.74;54.62;99596.98;129833;1281;128902;-69
2024/04/09 07:01:26;;;;;;;4.30;1.10;;;;;;;23.98;53.36;99593.40;129725;1264;115361;-64
2024/04/09 07:04:28;;;;;;;5.70;1.20;;;;;;;24.19;52.86;99596.48;129475;1262;115143;-64
2024/04/09 07:07:30;;;;;;;5.70;1.60;;;;;;;24.35;52.47;99591.80;129728;1276;114750;-64
2024/04/09 07:10:31;;;;;;;3.30;1.30;;;;;;;24.56;51.89;99593.52;129350;1264;115000;-64
2024/04/09 07:13:34;;;;;;;5.00;1.10;;;;;;;24.77;50.91;99589.66;129883;1259;114775;-66
2024/04/09 07:16:36;;;;;;;3.50;1.00;;;;;;;24.91;50.55;99586.63;129215;1280;114904;-66
2024/04/09 07:19:38;;;;;;;4.10;1.20;;;;;;;25.14;50.45;99580.51;129414;1281;115000;-63
2024/04/09 07:22:40;;;;;;;2.70;1.00;;;;;;;25.37;49.87;99580.10;129507;1259;114770;-66
2024/04/09 07:25:42;;;;;;;2.90;1.10;;;;;;;25.52;49.37;99582.05;129596;1281;114727;-64
2024/04/09 07:28:48;;;;;;;2.60;1.10;;;;;;;25.61;48.48;99581.33;129488;1264;114735;-66
2024/04/09 07:31:51;;;;;;;3.60;1.30;;;;;;;25.62;47.64;99583.27;129680;1260;114739;-66
2024/04/09 07:34:53;;;;;;;3.90;1.30;;;;;;;25.61;47.59;99582.20;129596;1264;114757;-64
2024/04/09 07:37:55;;;;;;;2.30;1.00;;;;;;;25.70;47.50;99580.45;129720;1259;114861;-66
2024/04/09 07:41:00;;;;;;;3.30;1.10;;;;;;;25.78;46.60;99581.77;129674;1281;119403;-67
2024/04/09 07:44:03;;;;;;;5.50;1.50;;;;;;;25.79;46.07;99582.03;129536;1264;114860;-65
2024/04/09 07:47:07;;;;;;;4.70;1.20;;;;;;;25.92;46.13;99579.30;129691;1263;114737;-66
2024/04/09 07:50:09;;;;;;;3.20;1.30;;;;;;;26.02;45.23;99576.92;129538;1259;116619;-67
2024/04/09 07:53:12;;;;;;;3.90;1.10;;;;;;;26.06;44.95;99575.73;129375;1259;115124;-67
2024/04/09 07:56:14;;;;;;;2.80;0.80;;;;;;;26.15;44.80;99572.30;129715;1263;114765;-67
2024/04/09 07:59:16;;;;;;;5.90;1.00;;;;;;;26.28;44.42;99573.73;129732;1259;114777;-66
2024/04/09 08:02:18;;;;;;;4.40;1.40;;;;;;;26.38;43.96;99568.45;129555;1259;114832;-67
2024/04/09 08:05:22;;;;;;;3.50;1.40;;;;;;;26.51;43.88;99570.05;129528;1263;114743;-67
2024/04/09 08:08:24;;;;;;;6.00;1.40;;;;;;;26.64;43.28;99564.86;129441;1260;114734;-66
2024/04/09 08:11:26;;;;;;;5.80;1.00;;;;;;;26.80;43.25;99561.41;129392;1263;114773;-65
2024/04/09 08:14:29;;;;;;;4.20;1.30;;;;;;;26.95;43.37;99558.73;129560;1259;114832;-66
2024/04/09 08:17:31;;;;;;;3.30;1.10;;;;;;;27.07;43.09;99556.63;129716;1264;120130;-63
2024/04/09 08:20:34;;;;;;;4.90;1.10;;;;;;;27.19;42.66;99553.48;129635;1262;114802;-66
2024/04/09 08:23:36;;;;;;;2.00;1.10;;;;;;;27.27;42.33;99552.46;129441;1262;115340;-66
2024/04/09 08:26:38;;;;;;;2.70;1.00;;;;;;;27.43;42.43;99546.91;129757;1259;114731;-68
2024/04/09 08:29:42;;;;;;;3.90;1.10;;;;;;;27.67;42.10;99547.27;129753;1264;114950;-66
2024/04/09 08:32:46;;;;;;;3.30;1.10;;;;;;;27.95;41.60;99546.23;129826;1259;114727;-63
2024/04/09 08:35:48;;;;;;;2.60;0.80;;;;;;;28.19;40.95;99549.22;129887;1273;114795;-67
2024/04/09 08:38:51;;;;;;;3.60;0.80;;;;;;;28.42;40.91;99549.10;129684;1264;114833;-67
2024/04/09 08:41:53;;;;;;;2.10;1.00;;;;;;;28.59;39.63;99549.05;129638;1265;114759;-64
2024/04/09 08:44:55;;;;;;;4.40;1.20;;;;;;;28.49;39.38;99549.56;129765;1264;114749;-65
2024/04/09 08:47:59;;;;;;;4.40;1.10;;;;;;;28.43;39.59;99548.17;129738;1263;114778;-68
2024/04/09 08:51:03;;;;;;;2.50;0.90;;;;;;;28.45;39.42;99546.23;129218;1259;114853;-69
2024/04/09 08:54:04;;;;;;;3.50;1.10;;;;;;;28.46;39.38;99544.74;129577;1266;119798;-66
2024/04/09 08:57:08;;;;;;;3.70;1.20;;;;;;;28.39;39.15;99539.36;129676;1277;114745;-65
2024/04/09 09:00:10;;;;;;;3.80;0.90;;;;;;;28.41;39.30;99538.94;129390;1264;114845;-64
2024/04/09 09:03:13;;;;;;;3.40;0.80;;;;;;;28.41;38.62;99533.30;129431;1263;114758;-68
2024/04/09 09:06:15;;;;;;;2.80;0.80;;;;;;;28.32;38.68;99526.34;129488;1259;114686;-65
2024/04/09 09:09:27;;;;;;;3.10;1.00;;;;;;;28.31;38.92;99529.65;129701;1264;115442;-65
2024/04/09 09:12:28;;;;;;;5.60;1.00;;;;;;;28.30;38.85;99529.58;129766;1263;120136;-66
2024/04/09 09:15:31;;;;;;;2.80;1.10;;;;;;;28.27;38.61;99529.02;129366;1262;115456;-63
2024/04/09 09:18:34;;;;;;;4.20;1.10;;;;;;;28.23;38.46;99524.19;129478;1276;114766;-66
2024/04/09 09:21:35;;;;;;;3.10;1.10;;;;;;;28.18;38.33;99521.39;129885;1258;114903;-68
2024/04/09 09:24:38;;;;;;;3.90;1.20;;;;;;;28.04;38.27;99519.91;129370;1281;114746;-62
2024/04/09 09:27:41;;;;;;;3.70;1.00;;;;;;;27.97;38.16;99519.09;129481;1274;114775;-67
2024/04/09 09:30:43;;;;;;;3.40;1.00;;;;;;;28.04;38.22;99513.47;129396;1259;115412;-65
2024/04/09 09:33:48;;;;;;;3.40;0.90;;;;;;;28.11;37.66;99513.20;129388;1262;115224;-67
2024/04/09 09:36:50;;;;;;;9.80;1.30;;;;;;;28.11;37.23;99507.14;129259;1259;115528;-66
2024/04/09 09:39:52;;;;;;;5.60;1.50;;;;;;;28.01;36.72;99508.05;129502;1260;114769;-65
2024/04/09 09:42:55;;;;;;;5.20;1.10;;;;;;;27.95;36.74;99506.73;129514;1264;114818;-66
2024/04/09 09:45:57;;;;;;;5.90;1.00;;;;;;;27.95;36.53;99505.55;129256;1281;114980;-69
2024/04/09 09:48:59;;;;;;;3.70;1.10;;;;;;;27.94;36.97;99503.96;129785;1259;114761;-66
2024/04/09 09:52:03;;;;;;;3.90;0.80;;;;;;;27.98;36.90;99500.11;129494;1264;114762;-66
2024/04/09 09:55:05;;;;;;;7.10;0.90;;;;;;;27.96;36.63;99499.45;129533;1274;114772;-65
2024/04/09 09:58:10;;;;;;;2.50;0.80;;;;;;;27.88;36.68;99501.46;129535;1259;114758;-67
2024/04/09 10:01:12;;;;;;;6.40;1.10;;;;;;;27.84;36.53;99505.35;129779;1267;115042;-69
2024/04/09 10:04:18;;;;;;;3.50;0.90;;;;;;;27.77;36.04;99506.31;129756;1259;115556;-67
2024/04/09 10:07:22;;;;;;;5.90;1.00;;;;;;;27.68;35.98;99500.62;129213;1281;119296;-66
2024/04/09 10:10:27;;;;;;;;;;;;;;;27.62;36.17;99491.77;129365;1259;114931;-67
2024/04/09 10:13:30;;;;;;;3.90;0.90;;;;;;;27.61;35.99;99491.34;129555;1263;114779;-66
2024/04/09 10:16:32;;;;;;;3.30;1.00;;;;;;;27.63;36.18;99486.98;129827;1263;114852;-66
2024/04/09 10:19:36;;;;;;;2.60;0.70;;;;;;;27.74;36.34;99485.18;129767;1265;114778;-67
2024/04/09 10:22:43;;;;;;;4.80;1.00;;;;;;;27.80;35.45;99481.64;129534;1265;114952;-64
2024/04/09 10:25:45;;;;;;;3.20;0.90;;;;;;;27.72;35.43;99478.88;129733;1274;120187;-66
2024/04/09 10:28:47;;;;;;;4.50;0.80;;;;;;;27.69;35.73;99474.71;129363;1281;115364;-64
2024/04/09 10:31:50;;;;;;;1.90;0.90;;;;;;;27.68;35.95;99468.66;129557;1265;115252;-66
2024/04/09 10:34:53;;;;;;;3.60;1.50;;;;;;;27.67;35.83;99468.98;129446;1264;115115;-67
2024/04/09 10:37:56;;;;;;;4.70;1.00;;;;;;;27.70;35.67;99467.55;129547;1265;114845;-67
2024/04/09 10:41:00;;;;;;;3.60;1.10;;;;;;;27.72;35.84;99463.79;129475;1259;114772;-67
2024/04/09 10:44:02;;;;;;;3.10;0.90;;;;;;;27.69;35.17;99462.31;129508;1281;119972;-66
2024/04/09 10:47:09;;;;;;;3.60;1.10;;;;;;;27.63;35.08;99461.41;129388;1259;115135;-64
2024/04/09 10:50:15;;;;;;;5.10;0.90;;;;;;;27.56;34.71;99463.05;129386;1267;115028;-67
2024/04/09 10:53:17;;;;;;;3.70;1.20;;;;;;;27.48;35.03;99456.76;129235;1281;114851;-67
2024/04/09 10:56:19;;;;;;;3.90;0.90;;;;;;;27.46;35.22;99453.45;129411;1259;114777;-68
2024/04/09 10:59:23;;;;;;;3.80;1.10;;;;;;;27.41;35.08;99444.61;129428;1259;114753;-66
2024/04/09 11:02:25;;;;;;;4.00;1.00;;;;;;;27.37;35.26;99439.52;129438;1259;114827;-66
2024/04/09 11:05:28;;;;;;;3.40;1.00;;;;;;;27.34;35.07;99437.63;129480;1264;114805;-66
2024/04/09 11:08:32;;;;;;;2.60;1.10;;;;;;;27.25;34.92;99440.42;129349;1266;114812;-67
2024/04/09 11:11:40;;;;;;;4.60;1.10;;;;;;;27.17;35.04;99441.29;129346;1267;114830;-67
2024/04/09 11:14:42;;;;;;;3.60;1.40;;;;;;;27.10;34.73;99441.69;129367;1259;114819;-66
2024/04/09 11:17:44;;;;;;;5.90;1.20;;;;;;;27.03;35.10;99446.27;129437;1264;115202;-67
2024/04/09 11:20:52;;;;;;;3.80;1.10;;;;;;;27.06;35.53;99448.22;129617;1259;115254;-65
2024/04/09 11:23:56;;;;;;;5.20;1.20;;;;;;;27.13;35.27;99444.41;129618;1263;114930;-66
2024/04/09 11:26:59;;;;;;;4.50;1.00;;;;;;;27.17;35.28;99442.55;129458;1281;114874;-66
2024/04/09 11:30:01;;;;;;;1.90;1.00;;;;;;;27.21;35.19;99441.81;129604;1262;114670;-66
2024/04/09 11:33:03;;;;;;;9.30;1.10;;;;;;;27.25;35.34;99443.26;129524;1263;114913;-66
2024/04/09 11:36:09;;;;;;;4.70;1.10;;;;;;;27.27;34.93;99446.95;129662;1264;115199;-67
2024/04/09 11:39:11;;;;;;;6.40;1.30;;;;;;;27.19;34.53;99440.58;129293;1281;114835;-66
2024/04/09 11:42:13;;;;;;;5.30;0.80;;;;;;;27.08;34.36;99437.36;129588;1259;114789;-67
2024/04/09 11:45:22;;;;;;;6.10;1.20;;;;;;;26.98;34.71;99431.83;129599;1264;114764;-66
2024/04/09 11:48:24;;;;;;;3.40;0.90;;;;;;;26.94;34.62;99431.90;129501;1274;114750;-66
2024/04/09 11:51:26;;;;;;;7.00;1.20;;;;;;;26.90;34.60;99432.92;129462;1273;115172;-67
2024/04/09 11:54:28;;;;;;;3.10;1.10;;;;;;;26.88;34.75;99436.52;129610;1278;114826;-67
2024/04/09 11:57:30;;;;;;;3.30;0.80;;;;;;;26.85;34.78;99430.21;129552;1263;120140;-66
2024/04/09 12:00:33;;;;;;;3.60;1.10;;;;;;;26.84;34.83;99426.36;129527;1281;114952;-68
2024/04/09 12:03:35;;;;;;;3.70;1.10;;;;;;;26.88;35.20;99422.05;129895;1264;114723;-67
2024/04/09 12:06:37;;;;;;;6.70;0.90;;;;;;;26.92;35.05;99416.58;129499;1265;115359;-68
2024/04/09 12:09:39;;;;;;;2.90;1.20;;;;;;;26.93;34.86;99417.48;129555;1262;114762;-66
2024/04/09 12:12:41;;;;;;;6.80;1.10;;;;;;;26.91;34.50;99414.80;129481;1265;114819;-67
2024/04/09 12:15:43;;;;;;;8.80;1.70;;;;;;;26.90;34.77;99407.35;129619;1259;114800;-68
2024/04/09 12:18:45;;;;;;;2.10;0.80;;;;;;;26.89;34.73;99407.98;129440;1267;119984;-67
2024/04/09 12:21:47;;;;;;;2.90;0.90;;;;;;;26.88;34.78;99403.33;129427;1265;114821;-66
2024/04/09 12:24:49;;;;;;;2.40;0.80;;;;;;;26.91;34.91;99408.45;129559;1264;114821;-67
2024/04/09 12:27:51;;;;;;;5.60;0.90;;;;;;;26.94;34.46;99410.46;129705;1259;114869;-67
2024/04/09 12:30:54;;;;;;;3.80;1.20;;;;;;;26.94;33.98;99407.67;129769;1263;114839;-67
2024/04/09 12:33:57;;;;;;;5.10;0.90;;;;;;;26.92;34.26;99400.89;129499;1259;114815;-66
2024/04/09 12:36:59;;;;;;;3.30;1.00;;;;;;;26.95;34.26;99399.85;129612;1259;115504;-67
2024/04/09 12:40:01;;;;;;;5.00;1.10;;;;;;;26.97;34.08;99397.03;129479;1264;121466;-67
2024/04/09 12:43:04;;;;;;;3.40;0.90;;;;;;;26.97;33.78;99399.22;129416;1262;114806;-67
2024/04/09 12:46:06;;;;;;;4.70;1.20;;;;;;;26.96;33.71;99396.52;129585;1281;114760;-67
2024/04/09 12:49:08;;;;;;;5.40;1.10;;;;;;;26.97;33.51;99395.04;129570;1258;115248;-68
2024/04/09 12:52:12;;;;;;;3.10;1.30;;;;;;;26.97;33.33;99395.33;129812;1259;114791;-66
2024/04/09 12:55:13;;;;;;;3.50;0.80;;;;;;;26.96;33.36;99394.15;129701;1265;114768;-66
2024/04/09 12:58:15;;;;;;;8.20;1.00;;;;;;;26.96;33.48;99397.91;129440;1259;114750;-67
2024/04/09 13:01:17;;;;;;;3.00;1.10;;;;;;;26.95;33.48;99397.30;129868;1265;115270;-66
2024/04/09 13:04:20;;;;;;;3.80;1.00;;;;;;;26.93;33.39;99391.80;129764;1264;114754;-66
2024/04/09 13:07:22;;;;;;;4.20;1.20;;;;;;;26.91;33.57;99382.52;129780;1264;114836;-67
2024/04/09 13:10:26;;;;;;;9.90;1.30;;;;;;;26.91;34.04;99378.77;129620;1263;115356;-67
2024/04/09 13:13:29;;;;;;;7.00;1.30;;;;;;;26.92;33.82;99382.42;129798;1264;115209;-67
2024/04/09 13:16:31;;;;;;;3.90;1.20;;;;;;;26.94;33.56;99386.83;129776;1264;114888;-67
2024/04/09 13:19:33;;;;;;;6.40;1.00;;;;;;;26.91;33.35;99372.34;129974;1259;114750;-67
2024/04/09 13:22:36;;;;;;;4.60;1.20;;;;;;;26.92;33.44;99370.95;129749;1263;114821;-67
2024/04/09 13:25:38;;;;;;;3.50;0.90;;;;;;;26.93;33.51;99367.63;129829;1263;114820;-67
2024/04/09 13:28:40;;;;;;;6.90;1.10;;;;;;;26.95;33.51;99368.98;129847;1265;114770;-67
2024/04/09 13:31:42;;;;;;;6.10;1.00;;;;;;;26.99;33.49;99367.60;129649;1266;114859;-67
2024/04/09 13:34:44;;;;;;;3.80;0.90;;;;;;;27.02;33.44;99367.73;129811;1259;115275;-67
2024/04/09 13:37:47;;;;;;;2.80;1.10;;;;;;;27.07;33.52;99367.32;129775;1259;114817;-68
2024/04/09 13:40:52;;;;;;;2.90;1.30;;;;;;;27.13;33.49;99371.19;129770;1281;114906;-67
2024/04/09 13:43:55;;;;;;;5.40;1.20;;;;;;;27.22;33.72;99375.39;129455;1277;114733;-66
2024/04/09 13:46:57;;;;;;;4.70;0.90;;;;;;;27.29;33.86;99378.35;129870;1258;115204;-67
2024/04/09 13:49:59;;;;;;;2.90;1.10;;;;;;;27.36;33.74;99381.13;129828;1274;115233;-68
2024/04/09 13:53:01;;;;;;;5.70;1.10;;;;;;;27.41;33.71;99377.54;129737;1273;115202;-67
2024/04/09 13:56:03;;;;;;;3.20;0.60;;;;;;;27.44;33.68;99377.30;129741;1263;114754;-68
2024/04/09 13:59:05;;;;;;;4.60;1.30;;;;;;;27.45;34.00;99376.86;129780;1259;114762;-70